sensor_id;sensor_type;location;lat;lon;timestamp;P1;durP1;ratioP1;P2;durP2;ratioP2
31378;SDS011;61664;48.112;11.662;2023-03-14T00:00:12;0.30;;;0.30;;
31378;SDS011;61664;48.112;11.662;2023-03-14T00:02:41;0.20;;;0.20;;
31378;SDS011;61664;48.112;11.662;2023-03-14T00:05:08;2.40;;;0.40;;
31378;SDS011;61664;48.112;11.662;2023-03-14T00:07:36;0.10;;;0.10;;
31378;SDS011;61664;48.112;11.662;2023-03-14T00:10:07;0.10;;;0.10;;
31378;SDS011;61664;48.112;11.662;2023-03-14T00:12:37;0.10;;;0.10;;
31378;SDS011;61664;48.112;11.662;2023-03-14T00:15:05;0.10;;;0.10;;
31378;SDS011;61664;48.112;11.662;2023-03-14T00:17:33;0.10;;;0.10;;
31378;SDS011;61664;48.112;11.662;2023-03-14T00:20:02;0.10;;;0.10;;
31378;SDS011;61664;48.112;11.662;2023-03-14T00:22:35;0.20;;;0.10;;
31378;SDS011;61664;48.112;11.662;2023-03-14T00:25:02;0.28;;;0.10;;
31378;SDS011;61664;48.112;11.662;2023-03-14T00:27:31;0.20;;;0.20;;
31378;SDS011;61664;48.112;11.662;2023-03-14T00:29:58;0.10;;;0.10;;
31378;SDS011;61664;48.112;11.662;2023-03-14T00:32:26;0.20;;;0.20;;
31378;SDS011;61664;48.112;11.662;2023-03-14T00:34:52;0.13;;;0.13;;
31378;SDS011;61664;48.112;11.662;2023-03-14T00:37:19;0.20;;;0.20;;
31378;SDS011;61664;48.112;11.662;2023-03-14T00:39:46;0.10;;;0.10;;
31378;SDS011;61664;48.112;11.662;2023-03-14T00:42:13;0.22;;;0.10;;
31378;SDS011;61664;48.112;11.662;2023-03-14T00:44:40;0.20;;;0.20;;
31378;SDS011;61664;48.112;11.662;2023-03-14T00:47:07;0.38;;;0.15;;
31378;SDS011;61664;48.112;11.662;2023-03-14T00:49:34;0.10;;;0.10;;
31378;SDS011;61664;48.112;11.662;2023-03-14T00:52:01;0.28;;;0.20;;
31378;SDS011;61664;48.112;11.662;2023-03-14T00:54:28;0.10;;;0.10;;
31378;SDS011;61664;48.112;11.662;2023-03-14T00:56:55;0.10;;;0.10;;
31378;SDS011;61664;48.112;11.662;2023-03-14T00:59:22;0.20;;;0.20;;
31378;SDS011;61664;48.112;11.662;2023-03-14T01:01:49;0.10;;;0.10;;
31378;SDS011;61664;48.112;11.662;2023-03-14T01:04:16;0.20;;;0.20;;
31378;SDS011;61664;48.112;11.662;2023-03-14T01:06:43;0.40;;;0.20;;
31378;SDS011;61664;48.112;11.662;2023-03-14T01:09:10;0.10;;;0.10;;
31378;SDS011;61664;48.112;11.662;2023-03-14T01:11:36;0.20;;;0.10;;
31378;SDS011;61664;48.112;11.662;2023-03-14T01:14:03;0.13;;;0.13;;
31378;SDS011;61664;48.112;11.662;2023-03-14T01:16:31;0.52;;;0.20;;
31378;SDS011;61664;48.112;11.662;2023-03-14T01:19:01;0.10;;;0.10;;
31378;SDS011;61664;48.112;11.662;2023-03-14T01:21:30;0.00;;;0.00;;
31378;SDS011;61664;48.112;11.662;2023-03-14T01:24:00;0.30;;;0.20;;
31378;SDS011;61664;48.112;11.662;2023-03-14T01:26:30;0.70;;;0.10;;
31378;SDS011;61664;48.112;11.662;2023-03-14T01:28:59;0.13;;;0.10;;
31378;SDS011;61664;48.112;11.662;2023-03-14T01:31:27;2.10;;;0.15;;
31378;SDS011;61664;48.112;11.662;2023-03-14T01:33:55;0.15;;;0.10;;
31378;SDS011;61664;48.112;11.662;2023-03-14T01:36:22;0.40;;;0.20;;
31378;SDS011;61664;48.112;11.662;2023-03-14T01:38:49;0.10;;;0.10;;
31378;SDS011;61664;48.112;11.662;2023-03-14T01:41:20;0.17;;;0.10;;
31378;SDS011;61664;48.112;11.662;2023-03-14T01:43:50;1.27;;;0.10;;
31378;SDS011;61664;48.112;11.662;2023-03-14T01:46:22;0.40;;;0.30;;
31378;SDS011;61664;48.112;11.662;2023-03-14T01:49:40;0.40;;;0.20;;
31378;SDS011;61664;48.112;11.662;2023-03-14T01:52:01;0.05;;;0.05;;
31378;SDS011;61664;48.112;11.662;2023-03-14T01:54:47;0.10;;;0.10;;
31378;SDS011;61664;48.112;11.662;2023-03-14T01:57:29;0.30;;;0.10;;
31378;SDS011;61664;48.112;11.662;2023-03-14T02:00:18;2.03;;;0.28;;
31378;SDS011;61664;48.112;11.662;2023-03-14T02:02:49;0.68;;;0.10;;
31378;SDS011;61664;48.112;11.662;2023-03-14T02:05:23;0.30;;;0.20;;
31378;SDS011;61664;48.112;11.662;2023-03-14T02:07:59;0.38;;;0.28;;
31378;SDS011;61664;48.112;11.662;2023-03-14T02:10:30;0.88;;;0.20;;
31378;SDS011;61664;48.112;11.662;2023-03-14T02:13:00;1.27;;;0.20;;
31378;SDS011;61664;48.112;11.662;2023-03-14T02:17:58;0.45;;;0.20;;
31378;SDS011;61664;48.112;11.662;2023-03-14T02:23:55;1.23;;;0.20;;
31378;SDS011;61664;48.112;11.662;2023-03-14T02:29:06;0.20;;;0.10;;
31378;SDS011;61664;48.112;11.662;2023-03-14T02:31:33;0.10;;;0.10;;
31378;SDS011;61664;48.112;11.662;2023-03-14T02:34:00;0.25;;;0.10;;
31378;SDS011;61664;48.112;11.662;2023-03-14T02:36:29;0.30;;;0.20;;
31378;SDS011;61664;48.112;11.662;2023-03-14T02:39:05;4.07;;;0.15;;
31378;SDS011;61664;48.112;11.662;2023-03-14T02:41:41;0.25;;;0.17;;
31378;SDS011;61664;48.112;11.662;2023-03-14T02:44:11;0.43;;;0.15;;
31378;SDS011;61664;48.112;11.662;2023-03-14T02:46:38;0.98;;;0.20;;
31378;SDS011;61664;48.112;11.662;2023-03-14T02:49:07;0.10;;;0.10;;
31378;SDS011;61664;48.112;11.662;2023-03-14T02:51:38;0.10;;;0.10;;
31378;SDS011;61664;48.112;11.662;2023-03-14T02:54:09;0.15;;;0.10;;
31378;SDS011;61664;48.112;11.662;2023-03-14T02:56:35;0.10;;;0.10;;
31378;SDS011;61664;48.112;11.662;2023-03-14T02:59:04;0.20;;;0.20;;
31378;SDS011;61664;48.112;11.662;2023-03-14T03:01:31;0.10;;;0.10;;
31378;SDS011;61664;48.112;11.662;2023-03-14T03:04:00;0.15;;;0.10;;
31378;SDS011;61664;48.112;11.662;2023-03-14T03:06:26;0.43;;;0.10;;
31378;SDS011;61664;48.112;11.662;2023-03-14T03:08:53;0.25;;;0.10;;
31378;SDS011;61664;48.112;11.662;2023-03-14T03:11:20;0.10;;;0.10;;
31378;SDS011;61664;48.112;11.662;2023-03-14T03:13:47;0.30;;;0.17;;
31378;SDS011;61664;48.112;11.662;2023-03-14T03:16:14;0.10;;;0.10;;
31378;SDS011;61664;48.112;11.662;2023-03-14T03:18:41;0.10;;;0.10;;
31378;SDS011;61664;48.112;11.662;2023-03-14T03:21:08;0.32;;;0.13;;
31378;SDS011;61664;48.112;11.662;2023-03-14T03:23:35;0.20;;;0.10;;
31378;SDS011;61664;48.112;11.662;2023-03-14T03:26:02;0.22;;;0.10;;
31378;SDS011;61664;48.112;11.662;2023-03-14T03:28:29;0.08;;;0.08;;
31378;SDS011;61664;48.112;11.662;2023-03-14T03:30:56;0.10;;;0.10;;
31378;SDS011;61664;48.112;11.662;2023-03-14T03:33:23;0.10;;;0.10;;
31378;SDS011;61664;48.112;11.662;2023-03-14T03:35:50;0.20;;;0.10;;
31378;SDS011;61664;48.112;11.662;2023-03-14T03:38:18;0.10;;;0.10;;
31378;SDS011;61664;48.112;11.662;2023-03-14T03:40:46;0.20;;;0.10;;
31378;SDS011;61664;48.112;11.662;2023-03-14T03:43:13;0.10;;;0.10;;
31378;SDS011;61664;48.112;11.662;2023-03-14T03:45:40;0.10;;;0.10;;
31378;SDS011;61664;48.112;11.662;2023-03-14T03:48:07;0.00;;;0.00;;
31378;SDS011;61664;48.112;11.662;2023-03-14T03:50:34;0.03;;;0.03;;
31378;SDS011;61664;48.112;11.662;2023-03-14T03:53:01;0.10;;;0.10;;
31378;SDS011;61664;48.112;11.662;2023-03-14T03:55:28;0.68;;;0.20;;
31378;SDS011;61664;48.112;11.662;2023-03-14T03:57:55;0.45;;;0.25;;
31378;SDS011;61664;48.112;11.662;2023-03-14T04:00:21;0.10;;;0.10;;
31378;SDS011;61664;48.112;11.662;2023-03-14T04:02:48;0.00;;;0.00;;
31378;SDS011;61664;48.112;11.662;2023-03-14T04:05:15;0.03;;;0.00;;
31378;SDS011;61664;48.112;11.662;2023-03-14T04:07:42;1.23;;;0.10;;
31378;SDS011;61664;48.112;11.662;2023-03-14T04:10:10;0.10;;;0.10;;
31378;SDS011;61664;48.112;11.662;2023-03-14T04:12:37;0.10;;;0.10;;
31378;SDS011;61664;48.112;11.662;2023-03-14T04:15:04;0.10;;;0.10;;
31378;SDS011;61664;48.112;11.662;2023-03-14T04:17:31;0.10;;;0.10;;
31378;SDS011;61664;48.112;11.662;2023-03-14T04:19:58;0.10;;;0.10;;
31378;SDS011;61664;48.112;11.662;2023-03-14T04:22:25;0.10;;;0.10;;
31378;SDS011;61664;48.112;11.662;2023-03-14T04:24:52;0.05;;;0.05;;
31378;SDS011;61664;48.112;11.662;2023-03-14T04:27:19;0.00;;;0.00;;
31378;SDS011;61664;48.112;11.662;2023-03-14T04:29:46;0.10;;;0.10;;
31378;SDS011;61664;48.112;11.662;2023-03-14T04:32:13;0.10;;;0.10;;
31378;SDS011;61664;48.112;11.662;2023-03-14T04:34:40;0.00;;;0.00;;
31378;SDS011;61664;48.112;11.662;2023-03-14T04:37:08;0.30;;;0.30;;
31378;SDS011;61664;48.112;11.662;2023-03-14T04:39:34;0.20;;;0.20;;
31378;SDS011;61664;48.112;11.662;2023-03-14T04:42:01;0.10;;;0.10;;
31378;SDS011;61664;48.112;11.662;2023-03-14T04:44:28;0.10;;;0.10;;
31378;SDS011;61664;48.112;11.662;2023-03-14T04:46:55;0.43;;;0.20;;
31378;SDS011;61664;48.112;11.662;2023-03-14T04:49:22;0.25;;;0.17;;
31378;SDS011;61664;48.112;11.662;2023-03-14T04:51:49;0.20;;;0.20;;
31378;SDS011;61664;48.112;11.662;2023-03-14T04:54:17;0.20;;;0.10;;
31378;SDS011;61664;48.112;11.662;2023-03-14T04:56:44;0.55;;;0.20;;
31378;SDS011;61664;48.112;11.662;2023-03-14T04:59:11;0.10;;;0.10;;
31378;SDS011;61664;48.112;11.662;2023-03-14T05:01:38;0.10;;;0.10;;
31378;SDS011;61664;48.112;11.662;2023-03-14T05:04:05;0.10;;;0.10;;
31378;SDS011;61664;48.112;11.662;2023-03-14T05:06:31;0.22;;;0.10;;
31378;SDS011;61664;48.112;11.662;2023-03-14T05:08:58;0.15;;;0.10;;
31378;SDS011;61664;48.112;11.662;2023-03-14T05:11:25;0.10;;;0.10;;
31378;SDS011;61664;48.112;11.662;2023-03-14T05:13:52;0.00;;;0.00;;
31378;SDS011;61664;48.112;11.662;2023-03-14T05:16:19;0.03;;;0.03;;
31378;SDS011;61664;48.112;11.662;2023-03-14T05:18:46;0.00;;;0.00;;
31378;SDS011;61664;48.112;11.662;2023-03-14T05:21:13;0.20;;;0.03;;
31378;SDS011;61664;48.112;11.662;2023-03-14T05:23:40;0.47;;;0.10;;
31378;SDS011;61664;48.112;11.662;2023-03-14T05:26:06;1.05;;;0.10;;
31378;SDS011;61664;48.112;11.662;2023-03-14T05:28:33;0.00;;;0.00;;
31378;SDS011;61664;48.112;11.662;2023-03-14T05:31:00;0.10;;;0.10;;
31378;SDS011;61664;48.112;11.662;2023-03-14T05:33:32;0.10;;;0.10;;
31378;SDS011;61664;48.112;11.662;2023-03-14T05:35:58;0.10;;;0.10;;
31378;SDS011;61664;48.112;11.662;2023-03-14T05:38:25;0.10;;;0.10;;
31378;SDS011;61664;48.112;11.662;2023-03-14T05:40:52;0.10;;;0.10;;
31378;SDS011;61664;48.112;11.662;2023-03-14T05:43:19;0.22;;;0.10;;
31378;SDS011;61664;48.112;11.662;2023-03-14T05:45:46;0.10;;;0.10;;
31378;SDS011;61664;48.112;11.662;2023-03-14T05:48:13;0.00;;;0.00;;
31378;SDS011;61664;48.112;11.662;2023-03-14T05:50:40;0.30;;;0.10;;
31378;SDS011;61664;48.112;11.662;2023-03-14T05:53:07;0.10;;;0.10;;
31378;SDS011;61664;48.112;11.662;2023-03-14T05:55:34;0.10;;;0.10;;
31378;SDS011;61664;48.112;11.662;2023-03-14T05:58:00;0.10;;;0.10;;
31378;SDS011;61664;48.112;11.662;2023-03-14T06:00:27;0.20;;;0.10;;
31378;SDS011;61664;48.112;11.662;2023-03-14T06:02:54;0.10;;;0.10;;
31378;SDS011;61664;48.112;11.662;2023-03-14T06:05:21;0.10;;;0.10;;
31378;SDS011;61664;48.112;11.662;2023-03-14T06:07:48;0.10;;;0.10;;
31378;SDS011;61664;48.112;11.662;2023-03-14T06:10:15;0.30;;;0.15;;
31378;SDS011;61664;48.112;11.662;2023-03-14T06:12:42;0.10;;;0.10;;
31378;SDS011;61664;48.112;11.662;2023-03-14T06:15:09;0.20;;;0.20;;
31378;SDS011;61664;48.112;11.662;2023-03-14T06:17:36;1.00;;;0.10;;
31378;SDS011;61664;48.112;11.662;2023-03-14T06:20:03;0.32;;;0.17;;
31378;SDS011;61664;48.112;11.662;2023-03-14T06:22:31;0.93;;;0.10;;
31378;SDS011;61664;48.112;11.662;2023-03-14T06:24:57;1.88;;;0.10;;
31378;SDS011;61664;48.112;11.662;2023-03-14T06:27:24;0.10;;;0.10;;
31378;SDS011;61664;48.112;11.662;2023-03-14T06:29:51;1.20;;;0.17;;
31378;SDS011;61664;48.112;11.662;2023-03-14T06:32:18;2.20;;;0.10;;
31378;SDS011;61664;48.112;11.662;2023-03-14T06:34:46;0.10;;;0.10;;
31378;SDS011;61664;48.112;11.662;2023-03-14T06:37:13;0.03;;;0.03;;
31378;SDS011;61664;48.112;11.662;2023-03-14T06:39:40;0.10;;;0.10;;
31378;SDS011;61664;48.112;11.662;2023-03-14T06:42:07;0.30;;;0.00;;
31378;SDS011;61664;48.112;11.662;2023-03-14T06:44:34;0.20;;;0.10;;
31378;SDS011;61664;48.112;11.662;2023-03-14T06:47:01;0.10;;;0.10;;
31378;SDS011;61664;48.112;11.662;2023-03-14T06:49:28;1.25;;;0.10;;
31378;SDS011;61664;48.112;11.662;2023-03-14T06:51:55;0.25;;;0.13;;
31378;SDS011;61664;48.112;11.662;2023-03-14T06:54:22;0.15;;;0.10;;
31378;SDS011;61664;48.112;11.662;2023-03-14T06:56:49;0.13;;;0.10;;
31378;SDS011;61664;48.112;11.662;2023-03-14T06:59:16;0.10;;;0.10;;
31378;SDS011;61664;48.112;11.662;2023-03-14T07:01:43;0.25;;;0.10;;
31378;SDS011;61664;48.112;11.662;2023-03-14T07:04:09;0.32;;;0.10;;
31378;SDS011;61664;48.112;11.662;2023-03-14T07:06:37;2.78;;;0.20;;
31378;SDS011;61664;48.112;11.662;2023-03-14T07:09:05;0.10;;;0.10;;
31378;SDS011;61664;48.112;11.662;2023-03-14T07:11:32;2.53;;;0.20;;
31378;SDS011;61664;48.112;11.662;2023-03-14T07:14:00;0.20;;;0.20;;
31378;SDS011;61664;48.112;11.662;2023-03-14T07:16:27;0.15;;;0.10;;
31378;SDS011;61664;48.112;11.662;2023-03-14T07:18:57;0.20;;;0.20;;
31378;SDS011;61664;48.112;11.662;2023-03-14T07:21:24;0.47;;;0.10;;
31378;SDS011;61664;48.112;11.662;2023-03-14T07:23:52;0.10;;;0.10;;
31378;SDS011;61664;48.112;11.662;2023-03-14T07:26:19;0.10;;;0.10;;
31378;SDS011;61664;48.112;11.662;2023-03-14T07:28:46;0.52;;;0.10;;
31378;SDS011;61664;48.112;11.662;2023-03-14T07:31:13;0.10;;;0.10;;
31378;SDS011;61664;48.112;11.662;2023-03-14T07:33:39;0.10;;;0.10;;
31378;SDS011;61664;48.112;11.662;2023-03-14T07:36:06;0.35;;;0.10;;
31378;SDS011;61664;48.112;11.662;2023-03-14T07:38:34;0.10;;;0.10;;
31378;SDS011;61664;48.112;11.662;2023-03-14T07:41:03;0.10;;;0.10;;
31378;SDS011;61664;48.112;11.662;2023-03-14T07:43:32;0.17;;;0.10;;
31378;SDS011;61664;48.112;11.662;2023-03-14T07:46:00;0.10;;;0.10;;
31378;SDS011;61664;48.112;11.662;2023-03-14T07:48:27;0.20;;;0.20;;
31378;SDS011;61664;48.112;11.662;2023-03-14T07:50:55;0.20;;;0.15;;
31378;SDS011;61664;48.112;11.662;2023-03-14T07:53:23;0.10;;;0.10;;
31378;SDS011;61664;48.112;11.662;2023-03-14T07:55:51;0.20;;;0.10;;
31378;SDS011;61664;48.112;11.662;2023-03-14T07:58:20;0.10;;;0.10;;
31378;SDS011;61664;48.112;11.662;2023-03-14T08:00:51;0.32;;;0.20;;
31378;SDS011;61664;48.112;11.662;2023-03-14T08:03:19;0.20;;;0.20;;
31378;SDS011;61664;48.112;11.662;2023-03-14T08:05:49;0.20;;;0.20;;
31378;SDS011;61664;48.112;11.662;2023-03-14T08:08:17;0.10;;;0.10;;
31378;SDS011;61664;48.112;11.662;2023-03-14T08:10:44;0.35;;;0.10;;
31378;SDS011;61664;48.112;11.662;2023-03-14T08:13:12;0.10;;;0.10;;
31378;SDS011;61664;48.112;11.662;2023-03-14T08:15:40;4.63;;;0.98;;
31378;SDS011;61664;48.112;11.662;2023-03-14T08:18:07;0.20;;;0.20;;
31378;SDS011;61664;48.112;11.662;2023-03-14T08:20:35;0.10;;;0.10;;
31378;SDS011;61664;48.112;11.662;2023-03-14T08:23:03;0.10;;;0.10;;
31378;SDS011;61664;48.112;11.662;2023-03-14T08:25:30;0.20;;;0.10;;
31378;SDS011;61664;48.112;11.662;2023-03-14T08:27:58;0.10;;;0.10;;
31378;SDS011;61664;48.112;11.662;2023-03-14T08:30:25;0.10;;;0.10;;
31378;SDS011;61664;48.112;11.662;2023-03-14T08:32:52;0.55;;;0.10;;
31378;SDS011;61664;48.112;11.662;2023-03-14T08:35:19;0.20;;;0.20;;
31378;SDS011;61664;48.112;11.662;2023-03-14T08:37:46;0.20;;;0.10;;
31378;SDS011;61664;48.112;11.662;2023-03-14T08:40:13;0.47;;;0.15;;
31378;SDS011;61664;48.112;11.662;2023-03-14T08:42:40;1.25;;;0.20;;
31378;SDS011;61664;48.112;11.662;2023-03-14T08:45:08;0.10;;;0.10;;
31378;SDS011;61664;48.112;11.662;2023-03-14T08:47:38;0.40;;;0.40;;
31378;SDS011;61664;48.112;11.662;2023-03-14T08:50:05;0.17;;;0.10;;
31378;SDS011;61664;48.112;11.662;2023-03-14T08:52:36;1.40;;;0.20;;
31378;SDS011;61664;48.112;11.662;2023-03-14T08:55:07;0.38;;;0.10;;
31378;SDS011;61664;48.112;11.662;2023-03-14T08:57:35;0.10;;;0.10;;
31378;SDS011;61664;48.112;11.662;2023-03-14T09:00:03;0.10;;;0.10;;
31378;SDS011;61664;48.112;11.662;2023-03-14T09:02:36;0.10;;;0.10;;
31378;SDS011;61664;48.112;11.662;2023-03-14T09:05:04;0.22;;;0.10;;
31378;SDS011;61664;48.112;11.662;2023-03-14T09:07:32;0.10;;;0.10;;
31378;SDS011;61664;48.112;11.662;2023-03-14T09:09:59;0.20;;;0.20;;
31378;SDS011;61664;48.112;11.662;2023-03-14T09:12:26;0.10;;;0.10;;
31378;SDS011;61664;48.112;11.662;2023-03-14T09:14:53;0.22;;;0.10;;
31378;SDS011;61664;48.112;11.662;2023-03-14T09:17:20;0.10;;;0.10;;
31378;SDS011;61664;48.112;11.662;2023-03-14T09:19:47;0.13;;;0.10;;
31378;SDS011;61664;48.112;11.662;2023-03-14T09:22:13;0.20;;;0.20;;
31378;SDS011;61664;48.112;11.662;2023-03-14T09:24:41;0.20;;;0.10;;
31378;SDS011;61664;48.112;11.662;2023-03-14T09:27:08;0.20;;;0.20;;
31378;SDS011;61664;48.112;11.662;2023-03-14T09:29:35;0.93;;;0.20;;
31378;SDS011;61664;48.112;11.662;2023-03-14T09:32:02;0.20;;;0.20;;
31378;SDS011;61664;48.112;11.662;2023-03-14T09:34:29;0.38;;;0.30;;
31378;SDS011;61664;48.112;11.662;2023-03-14T09:36:56;1.05;;;0.20;;
31378;SDS011;61664;48.112;11.662;2023-03-14T09:39:23;0.80;;;0.20;;
31378;SDS011;61664;48.112;11.662;2023-03-14T09:41:50;0.20;;;0.10;;
31378;SDS011;61664;48.112;11.662;2023-03-14T09:44:25;0.20;;;0.20;;
31378;SDS011;61664;48.112;11.662;2023-03-14T09:47:02;0.60;;;0.15;;
31378;SDS011;61664;48.112;11.662;2023-03-14T09:49:34;0.38;;;0.10;;
31378;SDS011;61664;48.112;11.662;2023-03-14T09:52:13;0.35;;;0.10;;
31378;SDS011;61664;48.112;11.662;2023-03-14T09:54:53;0.55;;;0.20;;
31378;SDS011;61664;48.112;11.662;2023-03-14T09:57:27;0.20;;;0.10;;
31378;SDS011;61664;48.112;11.662;2023-03-14T09:59:56;0.15;;;0.15;;
31378;SDS011;61664;48.112;11.662;2023-03-14T10:02:38;0.30;;;0.20;;
31378;SDS011;61664;48.112;11.662;2023-03-14T10:05:14;3.20;;;0.20;;
31378;SDS011;61664;48.112;11.662;2023-03-14T10:07:43;0.95;;;0.20;;
31378;SDS011;61664;48.112;11.662;2023-03-14T10:10:13;0.15;;;0.10;;
31378;SDS011;61664;48.112;11.662;2023-03-14T10:12:47;0.22;;;0.20;;
31378;SDS011;61664;48.112;11.662;2023-03-14T10:15:27;0.45;;;0.30;;
31378;SDS011;61664;48.112;11.662;2023-03-14T10:18:00;0.20;;;0.20;;
31378;SDS011;61664;48.112;11.662;2023-03-14T10:25:40;1.48;;;0.30;;
31378;SDS011;61664;48.112;11.662;2023-03-14T10:28:38;0.20;;;0.20;;
31378;SDS011;61664;48.112;11.662;2023-03-14T10:31:14;0.30;;;0.15;;
31378;SDS011;61664;48.112;11.662;2023-03-14T10:33:42;0.38;;;0.30;;
31378;SDS011;61664;48.112;11.662;2023-03-14T10:36:27;0.32;;;0.30;;
31378;SDS011;61664;48.112;11.662;2023-03-14T10:42:16;0.35;;;0.20;;
31378;SDS011;61664;48.112;11.662;2023-03-14T10:44:51;0.38;;;0.20;;
31378;SDS011;61664;48.112;11.662;2023-03-14T10:47:24;0.85;;;0.20;;
31378;SDS011;61664;48.112;11.662;2023-03-14T10:49:54;0.43;;;0.40;;
31378;SDS011;61664;48.112;11.662;2023-03-14T10:55:11;0.28;;;0.20;;
31378;SDS011;61664;48.112;11.662;2023-03-14T10:57:39;0.28;;;0.28;;
31378;SDS011;61664;48.112;11.662;2023-03-14T11:02:53;0.10;;;0.10;;
31378;SDS011;61664;48.112;11.662;2023-03-14T11:11:22;0.73;;;0.10;;
31378;SDS011;61664;48.112;11.662;2023-03-14T11:16:57;0.15;;;0.10;;
31378;SDS011;61664;48.112;11.662;2023-03-14T11:22:23;0.35;;;0.10;;
31378;SDS011;61664;48.112;11.662;2023-03-14T11:25:13;0.10;;;0.10;;
31378;SDS011;61664;48.112;11.662;2023-03-14T11:31:04;0.28;;;0.10;;
31378;SDS011;61664;48.112;11.662;2023-03-14T11:37:06;0.17;;;0.17;;
31378;SDS011;61664;48.112;11.662;2023-03-14T11:39:56;0.75;;;0.20;;
31378;SDS011;61664;48.112;11.662;2023-03-14T11:42:41;0.20;;;0.20;;
31378;SDS011;61664;48.112;11.662;2023-03-14T11:45:16;0.30;;;0.20;;
31378;SDS011;61664;48.112;11.662;2023-03-14T11:48:04;0.30;;;0.20;;
31378;SDS011;61664;48.112;11.662;2023-03-14T11:50:41;1.80;;;0.10;;
31378;SDS011;61664;48.112;11.662;2023-03-14T11:56:11;1.00;;;0.10;;
31378;SDS011;61664;48.112;11.662;2023-03-14T11:58:58;0.10;;;0.10;;
31378;SDS011;61664;48.112;11.662;2023-03-14T12:01:54;0.10;;;0.10;;
31378;SDS011;61664;48.112;11.662;2023-03-14T12:04:48;0.00;;;0.00;;
31378;SDS011;61664;48.112;11.662;2023-03-14T12:07:29;0.10;;;0.10;;
31378;SDS011;61664;48.112;11.662;2023-03-14T12:10:23;0.20;;;0.00;;
31378;SDS011;61664;48.112;11.662;2023-03-14T12:12:50;0.10;;;0.10;;
31378;SDS011;61664;48.112;11.662;2023-03-14T12:15:19;0.03;;;0.03;;
31378;SDS011;61664;48.112;11.662;2023-03-14T12:17:55;0.93;;;0.10;;
31378;SDS011;61664;48.112;11.662;2023-03-14T12:20:25;0.13;;;0.13;;
31378;SDS011;61664;48.112;11.662;2023-03-14T12:22:53;0.10;;;0.10;;
31378;SDS011;61664;48.112;11.662;2023-03-14T12:25:28;0.10;;;0.10;;
31378;SDS011;61664;48.112;11.662;2023-03-14T12:30:30;0.47;;;0.47;;
31378;SDS011;61664;48.112;11.662;2023-03-14T12:35:45;0.20;;;0.20;;
31378;SDS011;61664;48.112;11.662;2023-03-14T12:43:51;0.10;;;0.10;;
31378;SDS011;61664;48.112;11.662;2023-03-14T12:51:38;0.17;;;0.10;;
31378;SDS011;61664;48.112;11.662;2023-03-14T12:56:51;0.00;;;0.00;;
31378;SDS011;61664;48.112;11.662;2023-03-14T13:02:28;0.03;;;0.03;;
31378;SDS011;61664;48.112;11.662;2023-03-14T13:05:12;0.10;;;0.10;;
31378;SDS011;61664;48.112;11.662;2023-03-14T13:13:02;0.43;;;0.20;;
31378;SDS011;61664;48.112;11.662;2023-03-14T13:15:44;0.00;;;0.00;;
31378;SDS011;61664;48.112;11.662;2023-03-14T13:18:18;0.38;;;0.17;;
31378;SDS011;61664;48.112;11.662;2023-03-14T13:23:54;0.20;;;0.20;;
31378;SDS011;61664;48.112;11.662;2023-03-14T13:32:00;0.93;;;0.20;;
31378;SDS011;61664;48.112;11.662;2023-03-14T13:34:42;0.10;;;0.10;;
31378;SDS011;61664;48.112;11.662;2023-03-14T13:37:15;0.10;;;0.10;;
31378;SDS011;61664;48.112;11.662;2023-03-14T13:39:43;0.10;;;0.10;;
31378;SDS011;61664;48.112;11.662;2023-03-14T13:42:24;0.20;;;0.15;;
31378;SDS011;61664;48.112;11.662;2023-03-14T13:44:55;0.28;;;0.17;;
31378;SDS011;61664;48.112;11.662;2023-03-14T13:47:24;0.10;;;0.10;;
31378;SDS011;61664;48.112;11.662;2023-03-14T13:49:52;0.10;;;0.10;;
31378;SDS011;61664;48.112;11.662;2023-03-14T13:52:21;0.10;;;0.10;;
31378;SDS011;61664;48.112;11.662;2023-03-14T13:55:02;0.47;;;0.10;;
31378;SDS011;61664;48.112;11.662;2023-03-14T14:00:21;0.13;;;0.10;;
31378;SDS011;61664;48.112;11.662;2023-03-14T14:02:53;0.30;;;0.28;;
31378;SDS011;61664;48.112;11.662;2023-03-14T14:05:26;0.00;;;0.00;;
31378;SDS011;61664;48.112;11.662;2023-03-14T14:07:55;0.20;;;0.20;;
31378;SDS011;61664;48.112;11.662;2023-03-14T14:10:23;0.20;;;0.20;;
31378;SDS011;61664;48.112;11.662;2023-03-14T14:12:56;0.10;;;0.10;;
31378;SDS011;61664;48.112;11.662;2023-03-14T14:15:32;0.10;;;0.10;;
31378;SDS011;61664;48.112;11.662;2023-03-14T14:18:10;0.20;;;0.10;;
31378;SDS011;61664;48.112;11.662;2023-03-14T14:20:45;0.15;;;0.15;;
31378;SDS011;61664;48.112;11.662;2023-03-14T14:23:14;0.30;;;0.10;;
31378;SDS011;61664;48.112;11.662;2023-03-14T14:25:51;0.10;;;0.10;;
31378;SDS011;61664;48.112;11.662;2023-03-14T14:31:02;0.10;;;0.10;;
31378;SDS011;61664;48.112;11.662;2023-03-14T14:33:55;0.10;;;0.10;;
31378;SDS011;61664;48.112;11.662;2023-03-14T14:39:18;0.20;;;0.20;;
31378;SDS011;61664;48.112;11.662;2023-03-14T14:41:52;0.10;;;0.10;;
31378;SDS011;61664;48.112;11.662;2023-03-14T14:44:27;0.20;;;0.20;;
31378;SDS011;61664;48.112;11.662;2023-03-14T14:47:02;0.73;;;0.10;;
31378;SDS011;61664;48.112;11.662;2023-03-14T14:49:31;0.25;;;0.20;;
31378;SDS011;61664;48.112;11.662;2023-03-14T14:52:13;0.20;;;0.20;;
31378;SDS011;61664;48.112;11.662;2023-03-14T14:54:44;0.10;;;0.10;;
31378;SDS011;61664;48.112;11.662;2023-03-14T14:57:26;0.25;;;0.10;;
31378;SDS011;61664;48.112;11.662;2023-03-14T15:00:00;0.15;;;0.15;;
31378;SDS011;61664;48.112;11.662;2023-03-14T15:02:39;0.10;;;0.10;;
31378;SDS011;61664;48.112;11.662;2023-03-14T15:05:14;0.10;;;0.10;;
31378;SDS011;61664;48.112;11.662;2023-03-14T15:07:50;0.45;;;0.10;;
31378;SDS011;61664;48.112;11.662;2023-03-14T15:10:19;0.22;;;0.10;;
31378;SDS011;61664;48.112;11.662;2023-03-14T15:12:49;0.10;;;0.10;;
31378;SDS011;61664;48.112;11.662;2023-03-14T15:15:17;0.22;;;0.13;;
31378;SDS011;61664;48.112;11.662;2023-03-14T15:17:44;0.80;;;0.10;;
31378;SDS011;61664;48.112;11.662;2023-03-14T15:20:13;0.13;;;0.13;;
31378;SDS011;61664;48.112;11.662;2023-03-14T15:22:42;0.20;;;0.10;;
31378;SDS011;61664;48.112;11.662;2023-03-14T15:25:10;0.20;;;0.10;;
31378;SDS011;61664;48.112;11.662;2023-03-14T15:27:58;0.20;;;0.20;;
31378;SDS011;61664;48.112;11.662;2023-03-14T15:30:25;0.10;;;0.10;;
31378;SDS011;61664;48.112;11.662;2023-03-14T15:32:52;0.10;;;0.10;;
31378;SDS011;61664;48.112;11.662;2023-03-14T15:35:19;0.40;;;0.32;;
31378;SDS011;61664;48.112;11.662;2023-03-14T15:37:46;0.35;;;0.30;;
31378;SDS011;61664;48.112;11.662;2023-03-14T15:40:13;0.43;;;0.20;;
31378;SDS011;61664;48.112;11.662;2023-03-14T15:42:41;0.30;;;0.30;;
31378;SDS011;61664;48.112;11.662;2023-03-14T15:45:08;0.30;;;0.30;;
31378;SDS011;61664;48.112;11.662;2023-03-14T15:47:36;0.63;;;0.38;;
31378;SDS011;61664;48.112;11.662;2023-03-14T15:50:03;0.52;;;0.20;;
31378;SDS011;61664;48.112;11.662;2023-03-14T15:52:31;0.57;;;0.45;;
31378;SDS011;61664;48.112;11.662;2023-03-14T15:54:58;0.60;;;0.60;;
31378;SDS011;61664;48.112;11.662;2023-03-14T15:57:24;0.50;;;0.50;;
31378;SDS011;61664;48.112;11.662;2023-03-14T15:59:51;1.70;;;0.70;;
31378;SDS011;61664;48.112;11.662;2023-03-14T16:02:18;0.80;;;0.80;;
31378;SDS011;61664;48.112;11.662;2023-03-14T16:04:45;1.02;;;0.70;;
31378;SDS011;61664;48.112;11.662;2023-03-14T16:07:12;1.88;;;1.20;;
31378;SDS011;61664;48.112;11.662;2023-03-14T16:09:39;1.13;;;0.80;;
31378;SDS011;61664;48.112;11.662;2023-03-14T16:12:06;2.05;;;0.50;;
31378;SDS011;61664;48.112;11.662;2023-03-14T16:14:35;0.70;;;0.70;;
31378;SDS011;61664;48.112;11.662;2023-03-14T16:17:01;2.55;;;0.68;;